sensor_id;sensor_type;location;lat;lon;timestamp;pressure;altitude;pressure_sealevel;temperature;humidity
63916;BME280;50094;51.356;-0.196;2023-07-16T00:00:35;99705.20;;;23.94;38.59
63916;BME280;50094;51.356;-0.196;2023-07-16T00:03:02;99706.19;;;23.27;38.83
63916;BME280;50094;51.356;-0.196;2023-07-16T00:05:30;99714.65;;;23.81;38.48
63916;BME280;50094;51.356;-0.196;2023-07-16T00:07:57;99714.94;;;23.70;38.66
63916;BME280;50094;51.356;-0.196;2023-07-16T00:10:24;99711.39;;;23.70;38.36
63916;BME280;50094;51.356;-0.196;2023-07-16T00:12:51;99713.68;;;23.81;38.52
63916;BME280;50094;51.356;-0.196;2023-07-16T00:15:18;99713.85;;;24.10;38.45
63916;BME280;50094;51.356;-0.196;2023-07-16T00:17:45;99710.94;;;24.15;38.51
63916;BME280;50094;51.356;-0.196;2023-07-16T00:20:12;99713.23;;;23.73;38.53
63916;BME280;50094;51.356;-0.196;2023-07-16T00:22:40;99715.44;;;24.02;38.81
63916;BME280;50094;51.356;-0.196;2023-07-16T00:25:07;99711.03;;;23.77;38.80
63916;BME280;50094;51.356;-0.196;2023-07-16T00:27:34;99712.27;;;24.01;38.74
63916;BME280;50094;51.356;-0.196;2023-07-16T00:30:01;99716.48;;;24.11;38.63
63916;BME280;50094;51.356;-0.196;2023-07-16T00:32:29;99715.05;;;23.91;38.56
63916;BME280;50094;51.356;-0.196;2023-07-16T00:34:56;99723.57;;;23.86;38.62
63916;BME280;50094;51.356;-0.196;2023-07-16T00:37:23;99726.51;;;23.79;38.73
63916;BME280;50094;51.356;-0.196;2023-07-16T00:39:51;99722.98;;;23.42;38.86
63916;BME280;50094;51.356;-0.196;2023-07-16T00:42:18;99727.58;;;23.57;38.66
63916;BME280;50094;51.356;-0.196;2023-07-16T00:44:45;99724.34;;;24.27;38.39
63916;BME280;50094;51.356;-0.196;2023-07-16T00:47:12;99723.52;;;23.63;38.88
63916;BME280;50094;51.356;-0.196;2023-07-16T00:49:40;99724.38;;;23.82;38.62
63916;BME280;50094;51.356;-0.196;2023-07-16T00:52:10;99725.09;;;23.69;38.46
63916;BME280;50094;51.356;-0.196;2023-07-16T00:54:38;99723.69;;;24.26;38.37
63916;BME280;50094;51.356;-0.196;2023-07-16T00:57:07;99738.49;;;23.83;38.60
63916;BME280;50094;51.356;-0.196;2023-07-16T00:59:34;99745.86;;;23.72;38.43
63916;BME280;50094;51.356;-0.196;2023-07-16T01:02:01;99745.59;;;23.88;38.51
63916;BME280;50094;51.356;-0.196;2023-07-16T01:04:29;99747.42;;;23.44;38.73
63916;BME280;50094;51.356;-0.196;2023-07-16T01:06:59;99750.01;;;23.93;38.42
63916;BME280;50094;51.356;-0.196;2023-07-16T01:09:28;99754.21;;;23.98;38.32
63916;BME280;50094;51.356;-0.196;2023-07-16T01:11:55;99750.67;;;23.99;38.53
63916;BME280;50094;51.356;-0.196;2023-07-16T01:14:25;99751.96;;;23.53;38.86
63916;BME280;50094;51.356;-0.196;2023-07-16T01:16:52;99750.17;;;23.52;38.47
63916;BME280;50094;51.356;-0.196;2023-07-16T01:19:19;99752.39;;;23.99;38.46
63916;BME280;50094;51.356;-0.196;2023-07-16T01:21:51;99756.71;;;23.81;38.39
63916;BME280;50094;51.356;-0.196;2023-07-16T01:24:42;99752.91;;;23.86;38.23
63916;BME280;50094;51.356;-0.196;2023-07-16T01:27:27;99754.53;;;23.71;38.69
63916;BME280;50094;51.356;-0.196;2023-07-16T01:29:58;99751.31;;;23.93;38.42
63916;BME280;50094;51.356;-0.196;2023-07-16T01:32:28;99752.34;;;23.71;38.36
63916;BME280;50094;51.356;-0.196;2023-07-16T01:34:57;99756.56;;;23.38;38.36
63916;BME280;50094;51.356;-0.196;2023-07-16T01:37:25;99756.33;;;23.80;38.15
63916;BME280;50094;51.356;-0.196;2023-07-16T01:39:52;99756.65;;;23.19;38.55
63916;BME280;50094;51.356;-0.196;2023-07-16T01:42:20;99752.57;;;23.55;38.41
63916;BME280;50094;51.356;-0.196;2023-07-16T01:44:48;99754.92;;;23.36;38.29
63916;BME280;50094;51.356;-0.196;2023-07-16T01:47:19;99753.21;;;23.79;38.35
63916;BME280;50094;51.356;-0.196;2023-07-16T01:49:49;99753.84;;;23.90;38.12
63916;BME280;50094;51.356;-0.196;2023-07-16T01:52:17;99759.82;;;23.43;38.39
63916;BME280;50094;51.356;-0.196;2023-07-16T01:54:44;99762.15;;;23.72;38.06
63916;BME280;50094;51.356;-0.196;2023-07-16T01:57:11;99766.93;;;23.71;38.36
63916;BME280;50094;51.356;-0.196;2023-07-16T01:59:38;99768.60;;;23.60;38.21
63916;BME280;50094;51.356;-0.196;2023-07-16T02:02:05;99774.35;;;23.75;38.01
63916;BME280;50094;51.356;-0.196;2023-07-16T02:04:33;99781.70;;;24.00;37.94
63916;BME280;50094;51.356;-0.196;2023-07-16T02:06:59;99784.02;;;24.03;37.86
63916;BME280;50094;51.356;-0.196;2023-07-16T02:09:26;99785.58;;;23.33;38.13
63916;BME280;50094;51.356;-0.196;2023-07-16T02:11:53;99785.06;;;23.85;38.11
63916;BME280;50094;51.356;-0.196;2023-07-16T02:14:21;99781.76;;;23.80;38.07
63916;BME280;50094;51.356;-0.196;2023-07-16T02:16:48;99792.07;;;23.60;37.93
63916;BME280;50094;51.356;-0.196;2023-07-16T02:19:15;99786.04;;;23.95;37.83
63916;BME280;50094;51.356;-0.196;2023-07-16T02:21:42;99798.12;;;23.74;37.86
63916;BME280;50094;51.356;-0.196;2023-07-16T02:24:09;99798.15;;;23.64;38.01
63916;BME280;50094;51.356;-0.196;2023-07-16T02:26:36;99793.89;;;23.37;38.11
63916;BME280;50094;51.356;-0.196;2023-07-16T02:29:03;99790.65;;;23.65;37.95
63916;BME280;50094;51.356;-0.196;2023-07-16T02:31:30;99794.12;;;23.53;37.98
63916;BME280;50094;51.356;-0.196;2023-07-16T02:33:58;99800.36;;;23.35;37.77
63916;BME280;50094;51.356;-0.196;2023-07-16T02:36:25;99799.96;;;23.51;37.60
63916;BME280;50094;51.356;-0.196;2023-07-16T02:38:52;99799.36;;;23.27;37.61
63916;BME280;50094;51.356;-0.196;2023-07-16T02:41:19;99800.32;;;23.33;37.78
63916;BME280;50094;51.356;-0.196;2023-07-16T02:43:47;99804.68;;;23.44;37.56
63916;BME280;50094;51.356;-0.196;2023-07-16T02:46:14;99800.71;;;23.52;37.35
63916;BME280;50094;51.356;-0.196;2023-07-16T02:48:40;99804.95;;;23.64;37.42
63916;BME280;50094;51.356;-0.196;2023-07-16T02:51:07;99809.63;;;23.45;37.48
63916;BME280;50094;51.356;-0.196;2023-07-16T02:53:34;99812.23;;;23.27;37.46
63916;BME280;50094;51.356;-0.196;2023-07-16T02:56:02;99818.20;;;23.70;37.26
63916;BME280;50094;51.356;-0.196;2023-07-16T02:58:30;99826.37;;;23.90;36.71
63916;BME280;50094;51.356;-0.196;2023-07-16T03:00:57;99826.17;;;23.72;36.79
63916;BME280;50094;51.356;-0.196;2023-07-16T03:03:24;99825.75;;;23.35;36.86
63916;BME280;50094;51.356;-0.196;2023-07-16T03:05:52;99827.09;;;23.34;37.20
63916;BME280;50094;51.356;-0.196;2023-07-16T03:08:19;99830.28;;;23.48;36.88
63916;BME280;50094;51.356;-0.196;2023-07-16T03:10:47;99830.98;;;23.63;36.94
63916;BME280;50094;51.356;-0.196;2023-07-16T03:13:14;99837.75;;;23.55;37.11
63916;BME280;50094;51.356;-0.196;2023-07-16T03:15:41;99838.52;;;23.35;37.10
63916;BME280;50094;51.356;-0.196;2023-07-16T03:18:07;99841.79;;;23.58;37.01
63916;BME280;50094;51.356;-0.196;2023-07-16T03:20:34;99845.78;;;23.51;37.03
63916;BME280;50094;51.356;-0.196;2023-07-16T03:23:01;99851.65;;;23.40;37.22
63916;BME280;50094;51.356;-0.196;2023-07-16T03:25:28;99851.28;;;23.37;37.02
63916;BME280;50094;51.356;-0.196;2023-07-16T03:27:55;99862.83;;;23.42;36.87
63916;BME280;50094;51.356;-0.196;2023-07-16T03:30:23;99864.54;;;23.41;37.09
63916;BME280;50094;51.356;-0.196;2023-07-16T03:32:50;99871.57;;;23.55;36.79
63916;BME280;50094;51.356;-0.196;2023-07-16T03:35:17;99875.24;;;23.57;36.83
63916;BME280;50094;51.356;-0.196;2023-07-16T03:37:44;99878.21;;;23.58;36.76
63916;BME280;50094;51.356;-0.196;2023-07-16T03:40:14;99885.38;;;23.41;36.91
63916;BME280;50094;51.356;-0.196;2023-07-16T03:42:42;99887.04;;;23.54;36.82
63916;BME280;50094;51.356;-0.196;2023-07-16T03:45:10;99886.85;;;23.32;36.69
63916;BME280;50094;51.356;-0.196;2023-07-16T03:47:37;99891.53;;;23.15;36.92
63916;BME280;50094;51.356;-0.196;2023-07-16T03:50:06;99884.36;;;23.40;36.77
63916;BME280;50094;51.356;-0.196;2023-07-16T03:52:33;99891.66;;;23.35;36.78
63916;BME280;50094;51.356;-0.196;2023-07-16T03:55:01;99896.69;;;23.39;36.81
63916;BME280;50094;51.356;-0.196;2023-07-16T03:57:29;99896.07;;;23.20;36.72
63916;BME280;50094;51.356;-0.196;2023-07-16T03:59:56;99909.88;;;23.25;36.93
63916;BME280;50094;51.356;-0.196;2023-07-16T04:02:24;99912.67;;;23.59;36.66
63916;BME280;50094;51.356;-0.196;2023-07-16T04:04:51;99913.43;;;23.25;36.71
63916;BME280;50094;51.356;-0.196;2023-07-16T04:07:18;99920.29;;;23.60;36.56
63916;BME280;50094;51.356;-0.196;2023-07-16T04:09:45;99929.10;;;23.43;36.61
63916;BME280;50094;51.356;-0.196;2023-07-16T04:12:13;99931.52;;;23.36;36.67
63916;BME280;50094;51.356;-0.196;2023-07-16T04:14:40;99935.09;;;23.45;36.68
63916;BME280;50094;51.356;-0.196;2023-07-16T04:17:07;99934.66;;;23.27;36.64
63916;BME280;50094;51.356;-0.196;2023-07-16T04:19:34;99937.75;;;23.22;36.72
63916;BME280;50094;51.356;-0.196;2023-07-16T04:22:01;99934.31;;;23.36;36.40
63916;BME280;50094;51.356;-0.196;2023-07-16T04:24:29;99939.05;;;23.27;36.46
63916;BME280;50094;51.356;-0.196;2023-07-16T04:26:56;99941.55;;;23.51;36.41
63916;BME280;50094;51.356;-0.196;2023-07-16T04:29:23;99944.49;;;23.55;36.35
63916;BME280;50094;51.356;-0.196;2023-07-16T04:31:50;99946.04;;;23.37;36.59
63916;BME280;50094;51.356;-0.196;2023-07-16T04:34:18;99950.07;;;23.50;36.38
63916;BME280;50094;51.356;-0.196;2023-07-16T04:36:45;99960.03;;;23.39;36.38
63916;BME280;50094;51.356;-0.196;2023-07-16T04:39:12;99958.40;;;23.49;36.28
63916;BME280;50094;51.356;-0.196;2023-07-16T04:41:39;99964.55;;;23.34;36.56
63916;BME280;50094;51.356;-0.196;2023-07-16T04:44:06;99961.69;;;23.50;36.23
63916;BME280;50094;51.356;-0.196;2023-07-16T04:46:33;99967.08;;;23.48;36.21
63916;BME280;50094;51.356;-0.196;2023-07-16T04:49:01;99967.62;;;23.41;36.22
63916;BME280;50094;51.356;-0.196;2023-07-16T04:51:28;99969.91;;;23.42;36.17
63916;BME280;50094;51.356;-0.196;2023-07-16T04:53:55;99975.68;;;23.50;36.27
63916;BME280;50094;51.356;-0.196;2023-07-16T04:56:22;99980.01;;;23.34;36.30
63916;BME280;50094;51.356;-0.196;2023-07-16T04:58:49;99979.65;;;23.06;36.26
63916;BME280;50094;51.356;-0.196;2023-07-16T05:01:16;99983.29;;;23.21;36.30
63916;BME280;50094;51.356;-0.196;2023-07-16T05:03:43;99990.06;;;23.30;36.15
63916;BME280;50094;51.356;-0.196;2023-07-16T05:06:10;99987.03;;;23.33;36.10
63916;BME280;50094;51.356;-0.196;2023-07-16T05:08:37;99998.15;;;23.35;36.16
63916;BME280;50094;51.356;-0.196;2023-07-16T05:11:04;100002.14;;;23.13;36.24
63916;BME280;50094;51.356;-0.196;2023-07-16T05:13:31;100004.85;;;23.44;35.98
63916;BME280;50094;51.356;-0.196;2023-07-16T05:15:58;100007.50;;;23.42;35.96
63916;BME280;50094;51.356;-0.196;2023-07-16T05:18:25;100011.33;;;23.43;35.91
63916;BME280;50094;51.356;-0.196;2023-07-16T05:20:52;100013.89;;;23.24;36.10
63916;BME280;50094;51.356;-0.196;2023-07-16T05:23:19;100017.40;;;23.27;36.09
63916;BME280;50094;51.356;-0.196;2023-07-16T05:25:46;100019.12;;;23.48;35.94
63916;BME280;50094;51.356;-0.196;2023-07-16T05:28:13;100013.84;;;23.33;35.88
63916;BME280;50094;51.356;-0.196;2023-07-16T05:30:40;100016.50;;;23.93;35.65
63916;BME280;50094;51.356;-0.196;2023-07-16T05:33:09;100021.23;;;23.11;35.74
63916;BME280;50094;51.356;-0.196;2023-07-16T05:35:37;100022.77;;;23.92;35.18
63916;BME280;50094;51.356;-0.196;2023-07-16T05:38:04;100014.36;;;23.70;35.29
63916;BME280;50094;51.356;-0.196;2023-07-16T05:40:31;100018.21;;;24.08;35.18
63916;BME280;50094;51.356;-0.196;2023-07-16T05:42:58;100031.83;;;24.06;35.25
63916;BME280;50094;51.356;-0.196;2023-07-16T05:45:25;100031.13;;;24.06;35.11
63916;BME280;50094;51.356;-0.196;2023-07-16T05:47:51;100029.55;;;24.00;35.13
63916;BME280;50094;51.356;-0.196;2023-07-16T05:50:18;100033.09;;;23.96;35.15
63916;BME280;50094;51.356;-0.196;2023-07-16T05:52:45;100041.13;;;24.13;34.89
63916;BME280;50094;51.356;-0.196;2023-07-16T05:55:12;100047.85;;;24.00;34.91
63916;BME280;50094;51.356;-0.196;2023-07-16T05:57:39;100043.79;;;24.30;34.91
63916;BME280;50094;51.356;-0.196;2023-07-16T06:00:07;100043.18;;;23.79;34.86
63916;BME280;50094;51.356;-0.196;2023-07-16T06:02:35;100039.79;;;23.86;34.77
63916;BME280;50094;51.356;-0.196;2023-07-16T06:05:02;100045.88;;;23.70;34.96
63916;BME280;50094;51.356;-0.196;2023-07-16T06:07:29;100041.30;;;24.08;34.88
63916;BME280;50094;51.356;-0.196;2023-07-16T06:09:57;100041.63;;;24.40;34.77
63916;BME280;50094;51.356;-0.196;2023-07-16T06:12:25;100047.40;;;24.43;34.74
63916;BME280;50094;51.356;-0.196;2023-07-16T06:14:51;100048.68;;;24.43;34.36
63916;BME280;50094;51.356;-0.196;2023-07-16T06:17:18;100049.59;;;24.40;34.37
63916;BME280;50094;51.356;-0.196;2023-07-16T06:19:45;100065.02;;;24.59;34.24
63916;BME280;50094;51.356;-0.196;2023-07-16T06:22:12;100068.01;;;24.63;34.31
63916;BME280;50094;51.356;-0.196;2023-07-16T06:24:39;100071.57;;;24.23;34.18
63916;BME280;50094;51.356;-0.196;2023-07-16T06:27:06;100073.07;;;23.93;34.47
63916;BME280;50094;51.356;-0.196;2023-07-16T06:29:33;100077.96;;;24.18;34.52
63916;BME280;50094;51.356;-0.196;2023-07-16T06:32:00;100078.33;;;24.02;34.37
63916;BME280;50094;51.356;-0.196;2023-07-16T06:34:27;100084.34;;;23.91;34.48
63916;BME280;50094;51.356;-0.196;2023-07-16T06:36:54;100085.44;;;23.83;34.53
63916;BME280;50094;51.356;-0.196;2023-07-16T06:39:21;100091.78;;;24.00;34.66
63916;BME280;50094;51.356;-0.196;2023-07-16T06:41:48;100094.55;;;23.86;34.61
63916;BME280;50094;51.356;-0.196;2023-07-16T06:44:15;100101.32;;;24.31;34.57
63916;BME280;50094;51.356;-0.196;2023-07-16T06:46:42;100102.03;;;24.00;34.67
63916;BME280;50094;51.356;-0.196;2023-07-16T06:49:09;100101.63;;;23.93;34.71
63916;BME280;50094;51.356;-0.196;2023-07-16T06:51:37;100102.61;;;23.81;34.53
63916;BME280;50094;51.356;-0.196;2023-07-16T06:54:04;100102.98;;;23.64;34.73
63916;BME280;50094;51.356;-0.196;2023-07-16T06:56:30;100105.12;;;23.87;34.69
63916;BME280;50094;51.356;-0.196;2023-07-16T06:58:57;100110.47;;;23.76;34.53
63916;BME280;50094;51.356;-0.196;2023-07-16T07:01:24;100121.38;;;23.66;34.71
63916;BME280;50094;51.356;-0.196;2023-07-16T07:03:52;100128.95;;;23.87;34.52
63916;BME280;50094;51.356;-0.196;2023-07-16T07:06:19;100132.01;;;23.84;34.33
63916;BME280;50094;51.356;-0.196;2023-07-16T07:08:47;100128.11;;;24.00;34.55
63916;BME280;50094;51.356;-0.196;2023-07-16T07:11:14;100126.54;;;23.95;34.28
63916;BME280;50094;51.356;-0.196;2023-07-16T07:13:41;100135.82;;;23.76;34.40
63916;BME280;50094;51.356;-0.196;2023-07-16T07:16:08;100143.80;;;23.74;34.41
63916;BME280;50094;51.356;-0.196;2023-07-16T07:18:34;100145.66;;;23.74;34.39
63916;BME280;50094;51.356;-0.196;2023-07-16T07:21:02;100148.00;;;23.52;34.50
63916;BME280;50094;51.356;-0.196;2023-07-16T07:23:30;100151.17;;;23.91;34.62
63916;BME280;50094;51.356;-0.196;2023-07-16T07:25:56;100155.71;;;23.83;34.68
63916;BME280;50094;51.356;-0.196;2023-07-16T07:28:24;100163.36;;;23.65;34.53
63916;BME280;50094;51.356;-0.196;2023-07-16T07:30:51;100162.74;;;23.60;34.45
63916;BME280;50094;51.356;-0.196;2023-07-16T07:33:17;100171.02;;;23.79;34.35
63916;BME280;50094;51.356;-0.196;2023-07-16T07:35:44;100173.64;;;24.11;34.32
63916;BME280;50094;51.356;-0.196;2023-07-16T07:38:11;100167.17;;;24.13;34.24
63916;BME280;50094;51.356;-0.196;2023-07-16T07:40:38;100166.40;;;24.22;34.42
63916;BME280;50094;51.356;-0.196;2023-07-16T07:43:05;100163.18;;;24.08;34.42
63916;BME280;50094;51.356;-0.196;2023-07-16T07:45:31;100154.34;;;24.19;34.21
63916;BME280;50094;51.356;-0.196;2023-07-16T07:47:58;100156.67;;;24.13;34.36
63916;BME280;50094;51.356;-0.196;2023-07-16T07:50:26;100161.69;;;23.63;34.61
63916;BME280;50094;51.356;-0.196;2023-07-16T07:52:53;100168.85;;;23.86;34.32
63916;BME280;50094;51.356;-0.196;2023-07-16T07:55:20;100161.56;;;23.68;34.41
63916;BME280;50094;51.356;-0.196;2023-07-16T07:57:46;100164.16;;;23.67;34.46
63916;BME280;50094;51.356;-0.196;2023-07-16T08:00:14;100158.42;;;23.66;34.45
63916;BME280;50094;51.356;-0.196;2023-07-16T08:02:41;100166.56;;;23.81;34.20
63916;BME280;50094;51.356;-0.196;2023-07-16T08:05:09;100181.23;;;24.03;34.23
63916;BME280;50094;51.356;-0.196;2023-07-16T08:07:35;100178.43;;;24.26;34.01
63916;BME280;50094;51.356;-0.196;2023-07-16T08:10:03;100175.89;;;24.25;33.88
63916;BME280;50094;51.356;-0.196;2023-07-16T08:12:30;100182.85;;;23.63;34.29
63916;BME280;50094;51.356;-0.196;2023-07-16T08:14:57;100190.66;;;23.57;34.39
63916;BME280;50094;51.356;-0.196;2023-07-16T08:17:25;100189.70;;;23.75;34.20
63916;BME280;50094;51.356;-0.196;2023-07-16T08:19:53;100185.72;;;24.10;34.07
63916;BME280;50094;51.356;-0.196;2023-07-16T08:22:21;100182.58;;;24.25;34.04
63916;BME280;50094;51.356;-0.196;2023-07-16T08:24:48;100181.21;;;24.07;34.13
63916;BME280;50094;51.356;-0.196;2023-07-16T08:27:15;100191.44;;;24.11;34.02
63916;BME280;50094;51.356;-0.196;2023-07-16T08:29:42;100193.38;;;24.19;34.02
63916;BME280;50094;51.356;-0.196;2023-07-16T08:32:08;100196.99;;;24.21;33.86
63916;BME280;50094;51.356;-0.196;2023-07-16T08:34:35;100199.23;;;24.02;33.66
63916;BME280;50094;51.356;-0.196;2023-07-16T08:37:02;100206.81;;;23.98;33.61
63916;BME280;50094;51.356;-0.196;2023-07-16T08:39:31;100207.89;;;24.27;33.36
63916;BME280;50094;51.356;-0.196;2023-07-16T08:41:59;100217.58;;;24.02;33.41
63916;BME280;50094;51.356;-0.196;2023-07-16T08:44:26;100214.82;;;24.24;33.41
63916;BME280;50094;51.356;-0.196;2023-07-16T08:46:55;100213.17;;;24.18;33.60
63916;BME280;50094;51.356;-0.196;2023-07-16T08:49:23;100216.59;;;24.26;33.42
63916;BME280;50094;51.356;-0.196;2023-07-16T08:51:50;100226.04;;;24.02;33.40
63916;BME280;50094;51.356;-0.196;2023-07-16T08:54:18;100220.93;;;23.85;33.42
63916;BME280;50094;51.356;-0.196;2023-07-16T08:56:47;100226.77;;;23.83;33.48
63916;BME280;50094;51.356;-0.196;2023-07-16T08:59:15;100219.03;;;23.84;33.42
63916;BME280;50094;51.356;-0.196;2023-07-16T09:01:43;100220.94;;;24.26;33.31
63916;BME280;50094;51.356;-0.196;2023-07-16T09:04:10;100224.15;;;24.00;32.93
63916;BME280;50094;51.356;-0.196;2023-07-16T09:06:37;100233.16;;;23.98;32.93
63916;BME280;50094;51.356;-0.196;2023-07-16T09:09:04;100237.08;;;23.84;32.98
63916;BME280;50094;51.356;-0.196;2023-07-16T09:11:31;100233.49;;;24.15;32.85
63916;BME280;50094;51.356;-0.196;2023-07-16T09:14:01;100230.75;;;23.91;32.88
63916;BME280;50094;51.356;-0.196;2023-07-16T09:16:32;100227.63;;;23.90;32.81
63916;BME280;50094;51.356;-0.196;2023-07-16T09:19:06;100235.07;;;23.98;32.68
63916;BME280;50094;51.356;-0.196;2023-07-16T09:21:33;100238.15;;;24.18;32.80
63916;BME280;50094;51.356;-0.196;2023-07-16T09:24:00;100238.56;;;24.04;32.50
63916;BME280;50094;51.356;-0.196;2023-07-16T09:26:32;100233.61;;;24.48;32.38
63916;BME280;50094;51.356;-0.196;2023-07-16T09:29:00;100231.56;;;23.95;32.44
63916;BME280;50094;51.356;-0.196;2023-07-16T09:31:27;100237.46;;;23.78;32.63
63916;BME280;50094;51.356;-0.196;2023-07-16T09:33:57;100241.71;;;24.04;32.16
63916;BME280;50094;51.356;-0.196;2023-07-16T09:36:24;100239.49;;;24.22;32.34
63916;BME280;50094;51.356;-0.196;2023-07-16T09:38:52;100235.02;;;23.96;32.32
63916;BME280;50094;51.356;-0.196;2023-07-16T09:41:21;100238.75;;;24.22;32.30
63916;BME280;50094;51.356;-0.196;2023-07-16T09:43:48;100236.08;;;24.01;32.16
63916;BME280;50094;51.356;-0.196;2023-07-16T09:46:16;100242.08;;;23.99;31.97
63916;BME280;50094;51.356;-0.196;2023-07-16T09:48:43;100237.74;;;24.20;32.00
63916;BME280;50094;51.356;-0.196;2023-07-16T09:51:11;100237.82;;;24.21;31.87
63916;BME280;50094;51.356;-0.196;2023-07-16T09:53:41;100238.01;;;24.02;32.14
63916;BME280;50094;51.356;-0.196;2023-07-16T09:56:10;100244.29;;;24.25;32.16
63916;BME280;50094;51.356;-0.196;2023-07-16T09:58:39;100241.84;;;24.12;32.01
63916;BME280;50094;51.356;-0.196;2023-07-16T10:01:08;100236.46;;;24.06;32.15
63916;BME280;50094;51.356;-0.196;2023-07-16T10:03:36;100239.32;;;24.47;31.99
63916;BME280;50094;51.356;-0.196;2023-07-16T10:06:06;100252.94;;;23.92;32.19
63916;BME280;50094;51.356;-0.196;2023-07-16T10:08:34;100255.57;;;24.01;31.77
63916;BME280;50094;51.356;-0.196;2023-07-16T10:11:01;100258.43;;;23.97;31.88
63916;BME280;50094;51.356;-0.196;2023-07-16T10:13:28;100262.01;;;23.85;31.83
63916;BME280;50094;51.356;-0.196;2023-07-16T10:15:57;100268.11;;;23.65;32.13
63916;BME280;50094;51.356;-0.196;2023-07-16T10:18:25;100264.59;;;24.16;31.89
63916;BME280;50094;51.356;-0.196;2023-07-16T10:20:52;100266.20;;;23.87;31.96
63916;BME280;50094;51.356;-0.196;2023-07-16T10:23:19;100268.70;;;24.07;31.81
63916;BME280;50094;51.356;-0.196;2023-07-16T10:25:58;100267.84;;;24.31;31.76
63916;BME280;50094;51.356;-0.196;2023-07-16T10:28:25;100265.89;;;24.69;31.87
63916;BME280;50094;51.356;-0.196;2023-07-16T10:30:53;100271.61;;;24.02;32.17
63916;BME280;50094;51.356;-0.196;2023-07-16T10:33:20;100272.16;;;24.14;32.28
63916;BME280;50094;51.356;-0.196;2023-07-16T10:35:47;100269.25;;;24.14;31.93
63916;BME280;50094;51.356;-0.196;2023-07-16T10:38:15;100278.89;;;24.27;32.14
63916;BME280;50094;51.356;-0.196;2023-07-16T10:40:43;100281.34;;;23.93;32.30
63916;BME280;50094;51.356;-0.196;2023-07-16T10:43:11;100284.10;;;24.52;31.98
63916;BME280;50094;51.356;-0.196;2023-07-16T10:45:39;100276.54;;;24.02;32.26
63916;BME280;50094;51.356;-0.196;2023-07-16T10:48:06;100278.17;;;24.05;32.26
63916;BME280;50094;51.356;-0.196;2023-07-16T10:50:34;100274.18;;;24.24;32.36
63916;BME280;50094;51.356;-0.196;2023-07-16T10:53:02;100271.92;;;24.14;32.22
63916;BME280;50094;51.356;-0.196;2023-07-16T10:55:30;100280.04;;;24.41;32.11
63916;BME280;50094;51.356;-0.196;2023-07-16T10:57:57;100269.08;;;24.40;32.18
63916;BME280;50094;51.356;-0.196;2023-07-16T11:00:25;100271.29;;;24.26;32.49
63916;BME280;50094;51.356;-0.196;2023-07-16T11:02:52;100269.81;;;24.12;32.35
63916;BME280;50094;51.356;-0.196;2023-07-16T11:05:19;100273.83;;;24.24;32.21
63916;BME280;50094;51.356;-0.196;2023-07-16T11:07:48;100275.36;;;24.42;32.28
63916;BME280;50094;51.356;-0.196;2023-07-16T11:10:16;100274.75;;;24.08;32.38
63916;BME280;50094;51.356;-0.196;2023-07-16T11:12:43;100285.09;;;24.03;32.55
63916;BME280;50094;51.356;-0.196;2023-07-16T11:15:11;100282.74;;;24.18;32.50
63916;BME280;50094;51.356;-0.196;2023-07-16T11:17:38;100274.16;;;24.31;32.58
63916;BME280;50094;51.356;-0.196;2023-07-16T11:20:08;100281.04;;;24.48;32.35
63916;BME280;50094;51.356;-0.196;2023-07-16T11:22:37;100272.57;;;24.61;32.32
63916;BME280;50094;51.356;-0.196;2023-07-16T11:25:11;100266.00;;;24.06;32.60
63916;BME280;50094;51.356;-0.196;2023-07-16T11:27:41;100265.83;;;24.43;32.36
63916;BME280;50094;51.356;-0.196;2023-07-16T11:30:09;100273.02;;;24.39;32.68
63916;BME280;50094;51.356;-0.196;2023-07-16T11:32:37;100275.17;;;24.60;32.45
63916;BME280;50094;51.356;-0.196;2023-07-16T11:35:06;100269.87;;;24.70;32.43
63916;BME280;50094;51.356;-0.196;2023-07-16T11:37:34;100277.94;;;24.41;32.50
63916;BME280;50094;51.356;-0.196;2023-07-16T11:40:04;100285.32;;;24.11;32.68
63916;BME280;50094;51.356;-0.196;2023-07-16T11:42:34;100281.83;;;24.47;32.60
63916;BME280;50094;51.356;-0.196;2023-07-16T11:45:02;100274.70;;;24.20;32.63
63916;BME280;50094;51.356;-0.196;2023-07-16T11:47:30;100278.96;;;24.18;32.80
63916;BME280;50094;51.356;-0.196;2023-07-16T11:49:58;100284.42;;;24.59;32.74
63916;BME280;50094;51.356;-0.196;2023-07-16T11:52:28;100279.48;;;24.44;32.64
63916;BME280;50094;51.356;-0.196;2023-07-16T11:54:57;100289.99;;;24.26;32.75
63916;BME280;50094;51.356;-0.196;2023-07-16T11:57:25;100290.57;;;24.39;32.47
63916;BME280;50094;51.356;-0.196;2023-07-16T11:59:53;100295.14;;;24.49;32.33
63916;BME280;50094;51.356;-0.196;2023-07-16T12:02:20;100299.53;;;24.55;32.27
63916;BME280;50094;51.356;-0.196;2023-07-16T12:04:48;100296.94;;;24.68;32.40
63916;BME280;50094;51.356;-0.196;2023-07-16T12:07:29;100301.94;;;24.55;32.25
63916;BME280;50094;51.356;-0.196;2023-07-16T12:09:57;100303.20;;;24.33;32.46
63916;BME280;50094;51.356;-0.196;2023-07-16T12:12:24;100309.19;;;24.29;32.59
63916;BME280;50094;51.356;-0.196;2023-07-16T12:14:52;100304.62;;;24.30;32.64
63916;BME280;50094;51.356;-0.196;2023-07-16T12:17:19;100307.45;;;24.37;32.53
63916;BME280;50094;51.356;-0.196;2023-07-16T12:19:46;100308.39;;;24.68;32.44
63916;BME280;50094;51.356;-0.196;2023-07-16T12:22:16;100306.45;;;24.41;32.36
63916;BME280;50094;51.356;-0.196;2023-07-16T12:24:44;100311.30;;;24.68;32.20
63916;BME280;50094;51.356;-0.196;2023-07-16T12:27:12;100313.20;;;24.60;32.25
63916;BME280;50094;51.356;-0.196;2023-07-16T12:29:38;100311.13;;;24.51;32.00
63916;BME280;50094;51.356;-0.196;2023-07-16T12:32:06;100321.12;;;24.35;31.80
63916;BME280;50094;51.356;-0.196;2023-07-16T12:34:34;100325.25;;;24.29;31.77
63916;BME280;50094;51.356;-0.196;2023-07-16T12:37:02;100326.85;;;24.54;31.48
63916;BME280;50094;51.356;-0.196;2023-07-16T12:39:29;100325.71;;;24.46;31.48
63916;BME280;50094;51.356;-0.196;2023-07-16T12:41:56;100328.06;;;24.39;31.58
63916;BME280;50094;51.356;-0.196;2023-07-16T12:44:23;100331.27;;;24.42;31.56